createdAt,value
2022-12-31T00:01:45.221Z,26.56
2022-12-31T00:04:11.957Z,26.58
2022-12-31T00:06:38.816Z,26.60
2022-12-31T00:09:05.551Z,26.48
2022-12-31T00:11:32.333Z,26.50
2022-12-31T00:13:59.090Z,26.64
2022-12-31T00:16:25.855Z,26.52
2022-12-31T00:18:52.634Z,26.59
2022-12-31T00:21:19.379Z,26.55
2022-12-31T00:23:46.123Z,26.53
2022-12-31T00:26:12.919Z,26.51
2022-12-31T00:28:39.707Z,26.60
2022-12-31T00:31:06.582Z,26.60
2022-12-31T00:33:33.391Z,26.48
2022-12-31T00:39:03.591Z,26.60
2022-12-31T00:41:30.322Z,26.51
2022-12-31T00:43:57.127Z,26.59
2022-12-31T00:46:24.882Z,26.67
2022-12-31T00:48:51.632Z,26.43
2022-12-31T00:51:18.477Z,26.52
2022-12-31T00:53:45.278Z,26.52
2022-12-31T00:56:12.053Z,26.59
2022-12-31T00:58:38.792Z,26.63
2022-12-31T01:01:05.622Z,26.49
2022-12-31T01:03:32.431Z,26.51
2022-12-31T01:05:59.295Z,26.50
2022-12-31T01:08:26.086Z,26.46
2022-12-31T01:11:11.667Z,26.50
2022-12-31T01:13:38.425Z,26.46
2022-12-31T01:16:05.190Z,26.56
2022-12-31T01:18:31.942Z,26.57
2022-12-31T01:20:58.684Z,26.57
2022-12-31T01:23:25.427Z,26.54
2022-12-31T01:25:52.153Z,26.60
2022-12-31T01:28:18.921Z,26.63
2022-12-31T01:30:45.695Z,26.54
2022-12-31T01:33:12.453Z,26.47
2022-12-31T01:35:39.201Z,26.56
2022-12-31T01:38:05.956Z,26.44
2022-12-31T01:40:32.684Z,26.58
2022-12-31T01:42:59.468Z,26.59
2022-12-31T01:45:26.242Z,26.43
2022-12-31T01:47:53.001Z,26.46
2022-12-31T01:50:19.763Z,26.49
2022-12-31T01:52:46.528Z,26.47
2022-12-31T01:55:13.273Z,26.67
2022-12-31T01:57:40.042Z,26.51
2022-12-31T02:00:06.822Z,26.69
2022-12-31T02:02:33.638Z,26.58
2022-12-31T02:05:00.515Z,26.45
2022-12-31T02:07:27.314Z,26.50
2022-12-31T02:09:54.038Z,26.56
2022-12-31T02:12:20.820Z,26.53
2022-12-31T02:14:47.881Z,26.45
2022-12-31T02:17:14.729Z,26.45
2022-12-31T02:19:41.615Z,26.51
2022-12-31T02:22:08.466Z,26.56
2022-12-31T02:24:35.404Z,26.64
2022-12-31T02:27:02.251Z,26.46
2022-12-31T02:29:28.991Z,26.49
2022-12-31T02:31:55.847Z,26.61
2022-12-31T02:34:22.660Z,26.62
2022-12-31T02:36:49.410Z,26.44
2022-12-31T02:39:16.147Z,26.48
2022-12-31T02:41:52.154Z,26.42
2022-12-31T02:44:19.020Z,26.60
2022-12-31T02:46:45.784Z,26.36
2022-12-31T02:49:12.544Z,26.53
2022-12-31T02:51:39.275Z,26.59
2022-12-31T02:54:05.994Z,26.45
2022-12-31T02:56:32.751Z,26.44
2022-12-31T02:59:18.103Z,26.55
2022-12-31T03:02:03.535Z,26.49
2022-12-31T03:04:33.516Z,26.52
2022-12-31T03:07:00.317Z,26.61
2022-12-31T03:09:27.083Z,26.45
2022-12-31T03:12:12.687Z,26.44
2022-12-31T03:14:39.487Z,26.44
2022-12-31T03:17:06.227Z,26.63
2022-12-31T03:19:51.618Z,26.47
2022-12-31T03:22:27.301Z,26.42
2022-12-31T03:25:12.751Z,26.44
2022-12-31T03:27:39.541Z,26.51
2022-12-31T03:30:06.264Z,26.39
2022-12-31T03:32:33.010Z,26.55
2022-12-31T03:34:59.755Z,26.40
2022-12-31T03:37:26.507Z,26.60
2022-12-31T03:39:53.255Z,26.46
2022-12-31T03:42:20.008Z,26.45
2022-12-31T03:44:46.738Z,26.58
2022-12-31T03:47:13.496Z,26.57
2022-12-31T03:49:40.246Z,26.57
2022-12-31T03:52:08.568Z,26.47
2022-12-31T03:54:35.336Z,26.53
2022-12-31T03:57:02.069Z,26.37
2022-12-31T03:59:28.860Z,26.49
2022-12-31T04:01:55.807Z,26.48
2022-12-31T04:04:22.651Z,26.55
2022-12-31T04:06:49.399Z,26.47
2022-12-31T04:09:16.215Z,26.52
2022-12-31T04:11:43.005Z,26.58
2022-12-31T04:14:09.782Z,26.48
2022-12-31T04:16:36.585Z,26.47
2022-12-31T04:19:03.379Z,26.44
2022-12-31T04:21:34.772Z,26.54
2022-12-31T04:24:02.545Z,26.58
2022-12-31T04:26:29.331Z,26.45
2022-12-31T04:28:56.222Z,26.51
2022-12-31T04:31:23.053Z,26.49
2022-12-31T04:33:49.831Z,26.62
2022-12-31T04:36:16.661Z,26.50
2022-12-31T04:38:43.465Z,26.39
2022-12-31T04:41:19.729Z,26.53
2022-12-31T04:43:46.842Z,26.41
2022-12-31T04:46:13.655Z,26.45
2022-12-31T04:48:40.448Z,26.48
2022-12-31T04:51:07.257Z,26.51
2022-12-31T04:53:34.003Z,26.47
2022-12-31T04:56:00.758Z,26.44
2022-12-31T04:58:27.520Z,26.53
2022-12-31T05:00:55.201Z,26.44
2022-12-31T05:03:21.990Z,26.40
2022-12-31T05:05:49.920Z,26.47
2022-12-31T05:08:16.690Z,26.44
2022-12-31T05:10:43.445Z,26.50
2022-12-31T05:13:10.292Z,26.41
2022-12-31T05:15:37.037Z,26.45
2022-12-31T05:18:03.841Z,26.59
2022-12-31T05:20:30.614Z,26.53
2022-12-31T05:22:57.422Z,26.47
2022-12-31T05:25:24.210Z,26.63
2022-12-31T05:27:50.965Z,26.59
2022-12-31T05:30:18.621Z,26.40
2022-12-31T05:32:45.356Z,26.55
2022-12-31T05:35:12.137Z,26.39
2022-12-31T05:37:38.933Z,26.50
2022-12-31T05:40:05.696Z,26.53
2022-12-31T05:42:32.464Z,26.40
2022-12-31T05:44:59.253Z,26.52
2022-12-31T05:47:26.077Z,26.49
2022-12-31T05:49:52.853Z,26.70
2022-12-31T05:52:19.584Z,26.60
2022-12-31T05:54:46.340Z,26.62
2022-12-31T05:57:13.093Z,26.69
2022-12-31T05:59:39.826Z,26.54
2022-12-31T06:02:06.589Z,26.63
2022-12-31T06:04:33.345Z,26.49
2022-12-31T06:07:00.074Z,26.50
2022-12-31T06:09:26.848Z,26.52
2022-12-31T06:11:53.602Z,26.51
2022-12-31T06:14:20.349Z,26.54
2022-12-31T06:16:47.075Z,26.50
2022-12-31T06:19:13.830Z,26.58
2022-12-31T06:21:40.574Z,26.60
2022-12-31T06:24:07.307Z,26.38
2022-12-31T06:26:34.089Z,26.43
2022-12-31T06:29:00.826Z,26.59
2022-12-31T06:31:27.578Z,26.60
2022-12-31T06:33:54.380Z,26.46
2022-12-31T06:36:22.235Z,26.50
2022-12-31T06:38:49.042Z,26.53
2022-12-31T06:41:16.010Z,26.46
2022-12-31T06:43:42.792Z,26.56
2022-12-31T06:46:09.569Z,26.59
2022-12-31T06:48:36.403Z,26.52
2022-12-31T06:51:03.139Z,26.46
2022-12-31T06:53:29.866Z,26.41
2022-12-31T06:55:56.616Z,26.50
2022-12-31T06:58:23.398Z,26.59
2022-12-31T07:00:50.136Z,26.41
2022-12-31T07:03:16.932Z,26.45
2022-12-31T07:05:43.705Z,26.53
2022-12-31T07:08:10.441Z,26.49
2022-12-31T07:10:37.248Z,26.43
2022-12-31T07:13:03.981Z,26.58
2022-12-31T07:15:30.708Z,26.51
2022-12-31T07:17:57.460Z,26.59
2022-12-31T07:20:24.214Z,26.61
2022-12-31T07:22:50.946Z,26.68
2022-12-31T07:25:17.693Z,26.56
2022-12-31T07:27:44.441Z,26.46
2022-12-31T07:30:11.230Z,26.55
2022-12-31T07:32:37.973Z,26.69
2022-12-31T07:35:04.744Z,26.68
2022-12-31T07:37:31.477Z,26.50
2022-12-31T07:39:58.232Z,26.55
2022-12-31T07:42:24.977Z,26.54
2022-12-31T07:44:51.705Z,26.54
2022-12-31T07:47:18.455Z,26.52
2022-12-31T07:49:45.267Z,26.52
2022-12-31T07:52:12.031Z,26.51
2022-12-31T07:54:38.797Z,26.57
2022-12-31T07:57:05.562Z,26.54
2022-12-31T07:59:32.422Z,26.68
2022-12-31T08:02:00.001Z,26.69
2022-12-31T08:04:26.887Z,26.50
2022-12-31T08:06:53.636Z,26.66
2022-12-31T08:09:20.406Z,26.61
2022-12-31T08:11:47.514Z,26.82
2022-12-31T08:14:14.254Z,26.58
2022-12-31T08:16:41.033Z,26.64
2022-12-31T08:19:07.788Z,26.62
2022-12-31T08:21:35.126Z,26.70
2022-12-31T08:24:02.064Z,26.62
2022-12-31T08:26:28.804Z,26.63
2022-12-31T08:28:55.541Z,26.64
2022-12-31T08:31:22.393Z,26.61
2022-12-31T08:33:49.183Z,26.61
2022-12-31T08:36:15.988Z,26.69
2022-12-31T08:38:42.819Z,26.82
2022-12-31T08:41:09.555Z,26.86
2022-12-31T08:43:36.279Z,26.72
2022-12-31T08:46:03.086Z,26.59
2022-12-31T08:48:29.869Z,26.72
2022-12-31T08:50:56.645Z,26.76
2022-12-31T08:53:23.437Z,26.58
2022-12-31T08:55:50.175Z,26.67
2022-12-31T08:58:16.934Z,26.61
2022-12-31T09:00:43.750Z,26.64
2022-12-31T09:03:10.635Z,26.68
2022-12-31T09:05:37.372Z,26.63
2022-12-31T09:08:04.119Z,26.75
2022-12-31T09:10:30.863Z,26.61
2022-12-31T09:12:57.602Z,26.56
2022-12-31T09:15:24.355Z,26.75
2022-12-31T09:17:51.907Z,26.64
2022-12-31T09:20:18.693Z,26.76
2022-12-31T09:22:45.480Z,26.70
2022-12-31T09:25:12.229Z,26.62
2022-12-31T09:27:38.981Z,26.64
2022-12-31T09:30:05.755Z,26.78
2022-12-31T09:32:32.508Z,26.70
2022-12-31T09:34:59.338Z,26.61
2022-12-31T09:37:26.077Z,26.70
2022-12-31T09:39:52.801Z,26.63
2022-12-31T09:42:19.540Z,26.62
2022-12-31T09:44:46.299Z,26.62
2022-12-31T09:47:13.047Z,26.66
2022-12-31T09:49:39.807Z,26.60
2022-12-31T09:52:06.550Z,26.69
2022-12-31T09:54:33.287Z,26.75
2022-12-31T09:57:00.032Z,26.74
2022-12-31T09:59:26.814Z,26.78
2022-12-31T10:01:53.614Z,26.71
2022-12-31T10:04:20.480Z,26.64
2022-12-31T10:06:47.230Z,26.75
2022-12-31T10:09:13.987Z,26.69
2022-12-31T10:11:40.747Z,26.76
2022-12-31T10:14:07.497Z,26.59
2022-12-31T10:16:34.271Z,26.78
2022-12-31T10:19:01.044Z,26.85
2022-12-31T10:21:27.805Z,26.73
2022-12-31T10:23:54.554Z,26.70
2022-12-31T10:26:21.289Z,26.66
2022-12-31T10:28:48.043Z,26.74
2022-12-31T10:31:14.872Z,26.68
2022-12-31T10:33:41.662Z,26.75
2022-12-31T10:36:08.510Z,26.62
2022-12-31T10:38:35.293Z,26.73
2022-12-31T10:41:02.048Z,26.70
2022-12-31T10:43:28.803Z,26.74
2022-12-31T10:45:55.593Z,26.79
2022-12-31T10:48:22.362Z,26.69
2022-12-31T10:50:49.187Z,26.78
2022-12-31T10:53:15.949Z,26.70
2022-12-31T10:55:42.699Z,26.84
2022-12-31T10:58:09.603Z,26.84
2022-12-31T11:00:36.359Z,26.71
2022-12-31T11:03:03.219Z,26.75
2022-12-31T11:05:30.044Z,26.68
2022-12-31T11:07:56.800Z,26.68
2022-12-31T11:10:23.542Z,26.67
2022-12-31T11:12:50.307Z,26.69
2022-12-31T11:15:17.066Z,26.77
2022-12-31T11:17:43.795Z,26.63
2022-12-31T11:20:10.611Z,26.81
2022-12-31T11:22:37.351Z,26.61
2022-12-31T11:25:04.105Z,26.58
2022-12-31T11:27:30.953Z,26.87
2022-12-31T11:29:57.691Z,26.86
2022-12-31T11:32:24.421Z,26.67
2022-12-31T11:34:51.180Z,26.77
2022-12-31T11:37:17.912Z,26.81
2022-12-31T11:39:44.651Z,26.77
2022-12-31T11:42:11.435Z,26.74
2022-12-31T11:44:38.189Z,26.79
2022-12-31T11:47:04.943Z,26.82
2022-12-31T11:49:31.733Z,26.76
2022-12-31T11:51:58.477Z,26.78
2022-12-31T11:54:25.231Z,26.68
2022-12-31T11:56:51.991Z,26.68
2022-12-31T11:59:19.791Z,26.71
2022-12-31T12:01:46.780Z,26.81
2022-12-31T12:04:13.551Z,26.74
2022-12-31T12:06:40.294Z,26.71
2022-12-31T12:09:07.048Z,26.70
2022-12-31T12:11:33.963Z,26.86
2022-12-31T12:14:00.702Z,26.74
2022-12-31T12:16:27.600Z,26.74
2022-12-31T12:18:54.379Z,26.69
2022-12-31T12:21:21.116Z,26.81
2022-12-31T12:23:47.839Z,26.78
2022-12-31T12:26:14.595Z,26.92
2022-12-31T12:28:44.321Z,26.74
2022-12-31T12:31:11.363Z,26.78
2022-12-31T12:33:38.139Z,26.76
2022-12-31T12:36:04.880Z,26.76
2022-12-31T12:38:31.619Z,26.82
2022-12-31T12:40:58.448Z,26.73
2022-12-31T12:43:26.393Z,26.79
2022-12-31T12:45:53.124Z,26.79
2022-12-31T12:48:20.312Z,26.81
2022-12-31T12:50:47.052Z,26.79
2022-12-31T12:53:13.802Z,26.59
2022-12-31T12:55:40.604Z,26.71
2022-12-31T12:58:07.358Z,26.80
2022-12-31T13:00:34.195Z,26.62
2022-12-31T13:03:01.145Z,26.78
2022-12-31T13:05:28.581Z,26.82
2022-12-31T13:07:55.485Z,26.76
2022-12-31T13:10:22.256Z,26.75
2022-12-31T13:13:22.858Z,26.79
2022-12-31T13:15:35.754Z,26.75
2022-12-31T13:18:02.594Z,26.77
2022-12-31T13:20:29.353Z,26.77
2022-12-31T13:22:56.094Z,26.83
2022-12-31T13:25:22.849Z,26.61
2022-12-31T13:27:50.196Z,26.88
2022-12-31T13:30:17.024Z,26.87
2022-12-31T13:32:43.755Z,26.77
2022-12-31T13:35:11.906Z,26.66
2022-12-31T13:37:38.663Z,26.95
2022-12-31T13:40:05.642Z,26.73
2022-12-31T13:42:32.382Z,26.84
2022-12-31T13:44:59.158Z,26.61
2022-12-31T13:47:25.893Z,26.82
2022-12-31T13:49:52.619Z,26.81
2022-12-31T13:52:19.365Z,26.83
2022-12-31T13:54:46.102Z,26.75
2022-12-31T13:57:12.841Z,26.69
2022-12-31T13:59:39.579Z,26.76
2022-12-31T14:02:06.466Z,26.79
2022-12-31T14:04:33.438Z,26.66
2022-12-31T14:07:00.238Z,26.67
2022-12-31T14:09:27.032Z,26.89
2022-12-31T14:11:53.771Z,26.69
2022-12-31T14:14:20.651Z,26.85
2022-12-31T14:16:47.452Z,26.73
2022-12-31T14:19:14.218Z,26.90
2022-12-31T14:21:41.044Z,26.74
2022-12-31T14:24:07.898Z,26.70
2022-12-31T14:26:34.675Z,26.83
2022-12-31T14:29:01.420Z,26.76
2022-12-31T14:31:28.189Z,26.73
2022-12-31T14:33:54.947Z,26.79
2022-12-31T14:36:21.761Z,26.79
2022-12-31T14:38:48.545Z,26.69
2022-12-31T14:41:15.405Z,26.73
2022-12-31T14:43:42.160Z,26.75
2022-12-31T14:46:10.236Z,26.85
2022-12-31T14:48:37.016Z,26.75
2022-12-31T14:51:03.785Z,26.89
2022-12-31T14:53:30.617Z,26.80
2022-12-31T14:55:57.402Z,26.73
2022-12-31T14:58:28.815Z,26.78
2022-12-31T15:00:55.952Z,26.68
2022-12-31T15:03:22.850Z,26.81
2022-12-31T15:05:49.662Z,26.77
2022-12-31T15:08:16.400Z,26.77
2022-12-31T15:10:43.139Z,26.85
2022-12-31T15:13:09.920Z,26.70
2022-12-31T15:15:36.702Z,26.84
2022-12-31T15:18:03.537Z,26.67
2022-12-31T15:20:30.318Z,26.72
2022-12-31T15:22:57.077Z,26.92
2022-12-31T15:25:23.871Z,26.74
2022-12-31T15:27:50.611Z,26.89
2022-12-31T15:30:17.397Z,26.76
2022-12-31T15:32:44.218Z,26.81
2022-12-31T15:35:11.777Z,26.77
2022-12-31T15:37:38.517Z,26.84
2022-12-31T15:40:05.257Z,26.78
2022-12-31T15:42:42.430Z,26.79
2022-12-31T15:45:12.622Z,26.87
2022-12-31T15:47:39.376Z,26.84
2022-12-31T15:50:06.401Z,26.92
2022-12-31T15:52:33.148Z,26.77
2022-12-31T15:54:59.899Z,26.72
2022-12-31T15:57:26.639Z,26.74
2022-12-31T15:59:53.385Z,26.87
2022-12-31T16:02:20.287Z,26.80
2022-12-31T16:04:47.171Z,26.78
2022-12-31T16:07:13.894Z,26.80
2022-12-31T16:09:40.702Z,26.85
2022-12-31T16:12:07.436Z,26.66
2022-12-31T16:14:34.247Z,26.89
2022-12-31T16:17:01.677Z,26.70
2022-12-31T16:19:28.410Z,26.90
2022-12-31T16:21:55.269Z,26.85
2022-12-31T16:24:22.019Z,26.75
2022-12-31T16:26:48.761Z,26.73
2022-12-31T16:29:15.500Z,26.69
2022-12-31T16:31:42.331Z,26.85
2022-12-31T16:34:09.153Z,26.78
2022-12-31T16:36:36.021Z,26.70
2022-12-31T16:39:02.794Z,26.65
2022-12-31T16:41:29.525Z,26.89
2022-12-31T16:43:56.255Z,26.70
2022-12-31T16:46:26.029Z,26.76
2022-12-31T16:48:52.934Z,26.90
2022-12-31T16:51:19.767Z,26.81
2022-12-31T16:53:47.057Z,26.76
2022-12-31T16:56:13.801Z,26.77
2022-12-31T16:58:40.601Z,26.84
2022-12-31T17:01:07.450Z,26.75
2022-12-31T17:03:34.300Z,26.68
2022-12-31T17:06:01.438Z,26.75
2022-12-31T17:08:28.323Z,26.68
2022-12-31T17:10:56.313Z,26.67
2022-12-31T17:13:28.104Z,26.88
2022-12-31T17:15:55.814Z,26.78
2022-12-31T17:18:22.567Z,26.80
2022-12-31T17:20:49.311Z,26.81
2022-12-31T17:23:16.060Z,26.79
2022-12-31T17:25:42.798Z,26.78
2022-12-31T17:28:09.772Z,26.66
2022-12-31T17:30:36.558Z,26.72
2022-12-31T17:33:03.324Z,26.75
2022-12-31T17:35:30.102Z,26.76
2022-12-31T17:37:56.995Z,26.68
2022-12-31T17:40:50.422Z,26.82
2022-12-31T17:43:10.473Z,26.68
2022-12-31T17:45:37.351Z,26.63
2022-12-31T17:48:04.157Z,26.81
2022-12-31T17:50:30.929Z,26.74
2022-12-31T17:52:57.673Z,26.81
2022-12-31T17:55:24.411Z,26.65
2022-12-31T17:57:51.187Z,26.87
2022-12-31T18:00:17.935Z,26.76
2022-12-31T18:02:44.765Z,26.74
2022-12-31T18:05:11.579Z,26.83
2022-12-31T18:07:38.312Z,26.80
2022-12-31T18:10:05.055Z,26.70
2022-12-31T18:12:31.812Z,26.75
2022-12-31T18:14:58.548Z,26.71
2022-12-31T18:17:25.284Z,26.68
2022-12-31T18:20:04.863Z,26.77
2022-12-31T18:22:32.810Z,26.74
2022-12-31T18:24:59.549Z,26.89
2022-12-31T18:27:26.407Z,26.82
2022-12-31T18:29:53.177Z,26.81
2022-12-31T18:32:20.072Z,26.69
2022-12-31T18:34:46.796Z,26.72
2022-12-31T18:37:19.480Z,26.78
2022-12-31T18:39:48.382Z,26.65
2022-12-31T18:42:15.202Z,26.79
2022-12-31T18:44:42.115Z,26.80
2022-12-31T18:47:08.935Z,26.71
2022-12-31T18:49:35.820Z,26.79
2022-12-31T18:52:02.558Z,26.71
2022-12-31T18:54:29.348Z,26.87
2022-12-31T18:56:57.355Z,26.83
2022-12-31T18:59:24.164Z,26.86
2022-12-31T19:01:50.982Z,26.80
2022-12-31T19:04:26.572Z,26.94
2022-12-31T19:06:54.202Z,26.78
2022-12-31T19:09:43.941Z,26.78
2022-12-31T19:12:07.678Z,26.74
2022-12-31T19:14:34.423Z,26.70
2022-12-31T19:19:27.239Z,26.83
2022-12-31T19:21:53.999Z,26.88
2022-12-31T19:24:20.742Z,26.87
2022-12-31T19:26:47.494Z,26.87
2022-12-31T19:29:14.229Z,26.75
2022-12-31T19:31:41.040Z,26.85
2022-12-31T19:34:07.813Z,26.88
2022-12-31T19:36:40.143Z,26.82
2022-12-31T19:39:10.422Z,26.78
2022-12-31T19:41:37.239Z,26.85
2022-12-31T19:44:03.984Z,26.82
2022-12-31T19:46:30.783Z,26.83
2022-12-31T19:48:57.539Z,26.70
2022-12-31T19:51:24.278Z,26.75
2022-12-31T19:53:51.032Z,26.77
2022-12-31T19:56:17.913Z,26.66
2022-12-31T19:58:44.720Z,26.80
2022-12-31T20:01:11.523Z,26.96
2022-12-31T20:03:38.432Z,26.77
2022-12-31T20:06:05.265Z,26.80
2022-12-31T20:08:32.088Z,26.73
2022-12-31T20:10:58.940Z,26.76
2022-12-31T20:13:26.019Z,26.83
2022-12-31T20:15:52.807Z,26.78
2022-12-31T20:18:21.114Z,26.80
2022-12-31T20:20:55.117Z,26.80
2022-12-31T20:23:22.446Z,26.89
2022-12-31T20:25:49.174Z,26.91
2022-12-31T20:28:15.910Z,26.83
2022-12-31T20:30:42.711Z,26.76
2022-12-31T20:33:12.142Z,26.82
2022-12-31T20:35:42.570Z,26.73
2022-12-31T20:38:09.318Z,26.73
2022-12-31T20:40:39.105Z,26.65
2022-12-31T20:43:09.718Z,26.68
2022-12-31T20:45:36.463Z,26.75
2022-12-31T20:48:03.214Z,26.66
2022-12-31T20:50:30.023Z,26.62
2022-12-31T20:52:56.883Z,26.71
2022-12-31T20:55:25.095Z,26.76
2022-12-31T20:57:51.829Z,26.85
2022-12-31T21:00:18.614Z,26.80
2022-12-31T21:02:50.981Z,26.68
2022-12-31T21:05:23.395Z,26.65
2022-12-31T21:07:50.389Z,26.85
2022-12-31T21:10:17.295Z,26.69
2022-12-31T21:12:44.125Z,26.89
2022-12-31T21:15:10.870Z,26.76
2022-12-31T21:17:37.634Z,26.86
2022-12-31T21:20:05.084Z,26.75
2022-12-31T21:22:33.781Z,26.76
2022-12-31T21:25:01.046Z,26.84
2022-12-31T21:27:27.803Z,26.86
2022-12-31T21:30:17.814Z,26.79
2022-12-31T21:32:41.247Z,26.73
2022-12-31T21:35:40.749Z,26.87
2022-12-31T21:37:58.547Z,26.76
2022-12-31T21:40:27.545Z,26.92
2022-12-31T21:42:54.300Z,26.69
2022-12-31T21:45:21.075Z,26.67
2022-12-31T21:48:06.478Z,26.84
2022-12-31T21:50:33.319Z,26.78
2022-12-31T21:53:00.148Z,26.74
2022-12-31T21:55:56.275Z,26.69
2022-12-31T21:58:26.473Z,26.94
2022-12-31T22:01:32.842Z,26.73
2022-12-31T22:03:59.631Z,26.74
2022-12-31T22:06:26.362Z,26.65
2022-12-31T22:08:53.162Z,26.63
2022-12-31T22:11:19.899Z,26.76
2022-12-31T22:13:46.721Z,26.68
2022-12-31T22:16:14.047Z,26.74
2022-12-31T22:18:40.912Z,26.72
2022-12-31T22:21:13.738Z,26.74
2022-12-31T22:23:42.443Z,26.74
2022-12-31T22:26:09.239Z,26.74
2022-12-31T22:28:39.143Z,26.70
2022-12-31T22:31:06.482Z,26.85
2022-12-31T22:33:33.230Z,26.65
2022-12-31T22:35:59.981Z,26.69
2022-12-31T22:38:26.753Z,26.77
2022-12-31T22:40:53.499Z,26.71
2022-12-31T22:43:20.245Z,26.75
2022-12-31T22:45:47.005Z,26.77
2022-12-31T22:48:13.753Z,26.74
2022-12-31T22:50:40.483Z,26.73
2022-12-31T22:53:07.260Z,26.68
2022-12-31T22:55:34.005Z,26.64
2022-12-31T22:58:00.795Z,26.68
2022-12-31T23:00:27.533Z,26.66
2022-12-31T23:02:54.312Z,26.75
2022-12-31T23:05:21.056Z,26.62
2022-12-31T23:07:47.819Z,26.76
2022-12-31T23:10:33.187Z,26.74
2022-12-31T23:13:19.912Z,26.71
2022-12-31T23:16:05.438Z,26.69
2022-12-31T23:18:50.786Z,26.67
2022-12-31T23:21:36.304Z,26.63
2022-12-31T23:24:04.368Z,26.62
2022-12-31T23:26:31.145Z,26.62
2022-12-31T23:28:57.885Z,26.61
2022-12-31T23:31:28.565Z,26.57
2022-12-31T23:33:55.379Z,26.64
2022-12-31T23:36:22.132Z,26.55
2022-12-31T23:38:48.879Z,26.51
2022-12-31T23:41:15.612Z,26.58
2022-12-31T23:43:42.423Z,26.57
2022-12-31T23:46:09.175Z,26.64
2022-12-31T23:48:35.945Z,26.57
2022-12-31T23:51:02.697Z,26.70
2022-12-31T23:53:29.455Z,26.64
2022-12-31T23:55:56.192Z,26.57
2022-12-31T23:58:22.977Z,26.60
